sensor_id;sensor_type;location;lat;lon;timestamp;P1;durP1;ratioP1;P2;durP2;ratioP2
34557;SDS011;24708;48.888;8.736;2023-05-08T05:32:56;27.40;;;14.95;;
34557;SDS011;24708;48.888;8.736;2023-05-08T05:35:24;28.58;;;14.68;;
34557;SDS011;24708;48.888;8.736;2023-05-08T05:37:52;30.27;;;15.90;;
34557;SDS011;24708;48.888;8.736;2023-05-08T05:40:19;27.83;;;14.75;;
34557;SDS011;24708;48.888;8.736;2023-05-08T05:42:47;31.98;;;16.55;;
34557;SDS011;24708;48.888;8.736;2023-05-08T05:45:17;28.17;;;15.65;;
34557;SDS011;24708;48.888;8.736;2023-05-08T05:47:45;29.27;;;14.98;;
34557;SDS011;24708;48.888;8.736;2023-05-08T05:50:16;29.30;;;15.45;;
34557;SDS011;24708;48.888;8.736;2023-05-08T05:52:44;33.72;;;16.73;;
34557;SDS011;24708;48.888;8.736;2023-05-08T05:55:12;38.63;;;16.67;;
34557;SDS011;24708;48.888;8.736;2023-05-08T05:57:40;31.08;;;15.05;;
34557;SDS011;24708;48.888;8.736;2023-05-08T06:00:08;29.67;;;16.33;;
34557;SDS011;24708;48.888;8.736;2023-05-08T06:02:38;35.90;;;16.08;;
34557;SDS011;24708;48.888;8.736;2023-05-08T06:05:09;30.55;;;14.45;;
34557;SDS011;24708;48.888;8.736;2023-05-08T06:07:37;31.35;;;15.60;;
34557;SDS011;24708;48.888;8.736;2023-05-08T06:10:05;33.22;;;17.15;;
34557;SDS011;24708;48.888;8.736;2023-05-08T06:12:36;34.65;;;16.83;;
34557;SDS011;24708;48.888;8.736;2023-05-08T06:15:05;34.10;;;16.67;;
34557;SDS011;24708;48.888;8.736;2023-05-08T06:17:33;33.55;;;16.58;;
34557;SDS011;24708;48.888;8.736;2023-05-08T06:20:01;34.70;;;16.40;;
34557;SDS011;24708;48.888;8.736;2023-05-08T06:22:29;33.22;;;15.88;;
34557;SDS011;24708;48.888;8.736;2023-05-08T06:24:57;35.85;;;17.27;;
34557;SDS011;24708;48.888;8.736;2023-05-08T06:27:25;38.30;;;17.67;;
34557;SDS011;24708;48.888;8.736;2023-05-08T06:29:53;32.20;;;17.02;;
34557;SDS011;24708;48.888;8.736;2023-05-08T06:32:21;39.17;;;17.38;;
34557;SDS011;24708;48.888;8.736;2023-05-08T06:34:48;38.00;;;17.30;;
34557;SDS011;24708;48.888;8.736;2023-05-08T06:37:17;42.97;;;20.05;;
34557;SDS011;24708;48.888;8.736;2023-05-08T06:39:44;42.40;;;18.85;;
34557;SDS011;24708;48.888;8.736;2023-05-08T06:42:18;37.97;;;18.88;;
34557;SDS011;24708;48.888;8.736;2023-05-08T06:44:47;41.83;;;20.25;;
34557;SDS011;24708;48.888;8.736;2023-05-08T06:47:19;39.40;;;17.95;;
34557;SDS011;24708;48.888;8.736;2023-05-08T06:49:47;50.88;;;20.52;;
34557;SDS011;24708;48.888;8.736;2023-05-08T06:52:15;47.28;;;21.08;;
34557;SDS011;24708;48.888;8.736;2023-05-08T06:54:43;51.35;;;21.00;;
34557;SDS011;24708;48.888;8.736;2023-05-08T06:57:12;52.53;;;22.10;;
34557;SDS011;24708;48.888;8.736;2023-05-08T06:59:40;43.67;;;20.58;;
34557;SDS011;24708;48.888;8.736;2023-05-08T07:02:07;45.13;;;21.00;;
34557;SDS011;24708;48.888;8.736;2023-05-08T07:04:36;43.80;;;19.05;;
34557;SDS011;24708;48.888;8.736;2023-05-08T07:07:04;48.00;;;19.60;;
34557;SDS011;24708;48.888;8.736;2023-05-08T07:09:34;45.83;;;19.75;;
34557;SDS011;24708;48.888;8.736;2023-05-08T07:12:02;46.88;;;19.20;;
34557;SDS011;24708;48.888;8.736;2023-05-08T07:14:31;37.92;;;18.08;;
34557;SDS011;24708;48.888;8.736;2023-05-08T07:17:03;39.92;;;19.17;;
34557;SDS011;24708;48.888;8.736;2023-05-08T07:19:36;34.97;;;16.58;;
34557;SDS011;24708;48.888;8.736;2023-05-08T07:22:04;44.70;;;18.67;;
34557;SDS011;24708;48.888;8.736;2023-05-08T07:24:32;35.92;;;15.25;;
34557;SDS011;24708;48.888;8.736;2023-05-08T07:27:01;31.75;;;15.25;;
34557;SDS011;24708;48.888;8.736;2023-05-08T07:29:30;35.90;;;16.27;;
34557;SDS011;24708;48.888;8.736;2023-05-08T07:31:57;37.20;;;18.17;;
34557;SDS011;24708;48.888;8.736;2023-05-08T07:34:25;33.83;;;15.65;;
34557;SDS011;24708;48.888;8.736;2023-05-08T07:36:52;36.65;;;15.02;;
34557;SDS011;24708;48.888;8.736;2023-05-08T07:39:20;33.03;;;15.30;;
34557;SDS011;24708;48.888;8.736;2023-05-08T07:41:48;32.22;;;14.27;;
34557;SDS011;24708;48.888;8.736;2023-05-08T07:44:16;26.23;;;14.00;;
34557;SDS011;24708;48.888;8.736;2023-05-08T07:46:45;36.78;;;14.90;;
34557;SDS011;24708;48.888;8.736;2023-05-08T07:49:12;29.85;;;12.57;;
34557;SDS011;24708;48.888;8.736;2023-05-08T07:51:40;23.88;;;12.98;;
34557;SDS011;24708;48.888;8.736;2023-05-08T07:54:08;20.60;;;10.95;;
34557;SDS011;24708;48.888;8.736;2023-05-08T07:56:36;20.83;;;11.98;;
34557;SDS011;24708;48.888;8.736;2023-05-08T07:59:04;23.58;;;12.10;;
34557;SDS011;24708;48.888;8.736;2023-05-08T08:01:32;21.60;;;13.18;;
34557;SDS011;24708;48.888;8.736;2023-05-08T08:04:01;19.58;;;10.90;;
34557;SDS011;24708;48.888;8.736;2023-05-08T08:06:30;21.92;;;10.55;;
34557;SDS011;24708;48.888;8.736;2023-05-08T08:08:58;19.25;;;10.25;;
34557;SDS011;24708;48.888;8.736;2023-05-08T08:11:26;23.52;;;10.55;;
34557;SDS011;24708;48.888;8.736;2023-05-08T08:13:57;21.23;;;10.93;;
34557;SDS011;24708;48.888;8.736;2023-05-08T08:16:26;23.77;;;10.93;;
34557;SDS011;24708;48.888;8.736;2023-05-08T08:19:00;16.65;;;9.40;;
34557;SDS011;24708;48.888;8.736;2023-05-08T08:21:30;15.50;;;9.10;;
34557;SDS011;24708;48.888;8.736;2023-05-08T08:23:58;12.13;;;7.68;;
34557;SDS011;24708;48.888;8.736;2023-05-08T08:26:26;15.02;;;8.80;;
34557;SDS011;24708;48.888;8.736;2023-05-08T08:28:54;12.32;;;6.90;;
34557;SDS011;24708;48.888;8.736;2023-05-08T08:31:22;10.88;;;6.03;;
34557;SDS011;24708;48.888;8.736;2023-05-08T08:33:50;10.75;;;6.65;;
34557;SDS011;24708;48.888;8.736;2023-05-08T08:36:17;11.00;;;6.90;;
34557;SDS011;24708;48.888;8.736;2023-05-08T08:38:45;13.50;;;7.97;;
34557;SDS011;24708;48.888;8.736;2023-05-08T08:41:12;17.85;;;7.55;;
34557;SDS011;24708;48.888;8.736;2023-05-08T08:43:41;14.93;;;7.30;;
34557;SDS011;24708;48.888;8.736;2023-05-08T08:46:12;9.13;;;5.88;;
34557;SDS011;24708;48.888;8.736;2023-05-08T08:48:42;9.73;;;5.63;;
34557;SDS011;24708;48.888;8.736;2023-05-08T08:51:13;10.27;;;6.50;;
34557;SDS011;24708;48.888;8.736;2023-05-08T08:56:33;19.50;;;6.03;;
34557;SDS011;24708;48.888;8.736;2023-05-08T08:59:05;14.23;;;6.28;;
34557;SDS011;24708;48.888;8.736;2023-05-08T09:01:34;10.07;;;6.32;;
34557;SDS011;24708;48.888;8.736;2023-05-08T09:04:05;9.43;;;6.53;;
34557;SDS011;24708;48.888;8.736;2023-05-08T09:06:34;10.20;;;5.65;;
34557;SDS011;24708;48.888;8.736;2023-05-08T09:09:03;9.15;;;6.47;;
34557;SDS011;24708;48.888;8.736;2023-05-08T09:11:31;10.77;;;5.70;;
34557;SDS011;24708;48.888;8.736;2023-05-08T09:13:59;12.68;;;5.57;;
34557;SDS011;24708;48.888;8.736;2023-05-08T09:16:26;7.95;;;5.78;;
34557;SDS011;24708;48.888;8.736;2023-05-08T09:18:54;7.28;;;5.18;;
34557;SDS011;24708;48.888;8.736;2023-05-08T09:21:21;9.52;;;6.05;;
34557;SDS011;24708;48.888;8.736;2023-05-08T09:23:59;8.60;;;5.82;;
34557;SDS011;24708;48.888;8.736;2023-05-08T09:29:16;8.52;;;5.90;;
34557;SDS011;24708;48.888;8.736;2023-05-08T09:31:49;13.93;;;7.18;;
34557;SDS011;24708;48.888;8.736;2023-05-08T09:34:29;15.77;;;8.18;;
34557;SDS011;24708;48.888;8.736;2023-05-08T09:39:36;11.98;;;6.40;;
34557;SDS011;24708;48.888;8.736;2023-05-08T09:42:07;13.23;;;7.07;;
34557;SDS011;24708;48.888;8.736;2023-05-08T09:44:54;13.23;;;6.78;;
34557;SDS011;24708;48.888;8.736;2023-05-08T09:47:22;13.25;;;7.72;;
34557;SDS011;24708;48.888;8.736;2023-05-08T09:52:26;17.00;;;8.00;;
34557;SDS011;24708;48.888;8.736;2023-05-08T09:54:55;15.35;;;8.07;;
34557;SDS011;24708;48.888;8.736;2023-05-08T09:57:31;19.27;;;9.05;;
34557;SDS011;24708;48.888;8.736;2023-05-08T09:59:59;16.40;;;8.85;;
34557;SDS011;24708;48.888;8.736;2023-05-08T10:02:36;18.30;;;8.50;;
34557;SDS011;24708;48.888;8.736;2023-05-08T10:05:21;14.88;;;8.38;;
34557;SDS011;24708;48.888;8.736;2023-05-08T10:07:49;16.58;;;8.52;;
34557;SDS011;24708;48.888;8.736;2023-05-08T10:10:23;18.35;;;9.05;;
34557;SDS011;24708;48.888;8.736;2023-05-08T10:12:57;17.63;;;9.60;;
34557;SDS011;24708;48.888;8.736;2023-05-08T10:15:27;19.25;;;9.77;;
34557;SDS011;24708;48.888;8.736;2023-05-08T10:18:04;20.25;;;10.82;;
34557;SDS011;24708;48.888;8.736;2023-05-08T10:20:59;19.80;;;9.52;;
34557;SDS011;24708;48.888;8.736;2023-05-08T10:23:38;12.68;;;7.82;;
34557;SDS011;24708;48.888;8.736;2023-05-08T10:26:18;19.00;;;7.45;;
34557;SDS011;24708;48.888;8.736;2023-05-08T10:28:58;14.27;;;7.07;;
34557;SDS011;24708;48.888;8.736;2023-05-08T10:31:30;10.18;;;7.07;;
34557;SDS011;24708;48.888;8.736;2023-05-08T10:34:02;12.85;;;8.00;;
34557;SDS011;24708;48.888;8.736;2023-05-08T10:36:37;13.60;;;7.15;;
34557;SDS011;24708;48.888;8.736;2023-05-08T10:39:05;12.18;;;7.55;;
34557;SDS011;24708;48.888;8.736;2023-05-08T10:41:32;11.55;;;7.03;;
34557;SDS011;24708;48.888;8.736;2023-05-08T10:44:02;10.88;;;6.25;;
34557;SDS011;24708;48.888;8.736;2023-05-08T10:49:59;9.80;;;6.63;;
34557;SDS011;24708;48.888;8.736;2023-05-08T10:52:35;9.27;;;6.40;;
34557;SDS011;24708;48.888;8.736;2023-05-08T10:58:01;10.38;;;6.55;;
34557;SDS011;24708;48.888;8.736;2023-05-08T11:00:30;9.98;;;6.70;;
34557;SDS011;24708;48.888;8.736;2023-05-08T11:03:05;10.38;;;6.80;;
34557;SDS011;24708;48.888;8.736;2023-05-08T11:05:50;11.07;;;6.03;;
34557;SDS011;24708;48.888;8.736;2023-05-08T11:08:19;9.75;;;6.78;;
34557;SDS011;24708;48.888;8.736;2023-05-08T11:10:51;9.25;;;6.10;;
34557;SDS011;24708;48.888;8.736;2023-05-08T11:13:35;8.25;;;5.75;;
34557;SDS011;24708;48.888;8.736;2023-05-08T11:16:06;7.40;;;5.20;;
34557;SDS011;24708;48.888;8.736;2023-05-08T11:18:36;9.40;;;5.20;;
34557;SDS011;24708;48.888;8.736;2023-05-08T11:21:19;5.75;;;4.45;;
34557;SDS011;24708;48.888;8.736;2023-05-08T11:23:55;7.35;;;4.20;;
34557;SDS011;24708;48.888;8.736;2023-05-08T11:26:38;7.55;;;5.00;;
34557;SDS011;24708;48.888;8.736;2023-05-08T11:29:15;4.75;;;3.50;;
34557;SDS011;24708;48.888;8.736;2023-05-08T11:31:49;6.10;;;3.55;;
34557;SDS011;24708;48.888;8.736;2023-05-08T11:37:19;3.10;;;2.42;;
34557;SDS011;24708;48.888;8.736;2023-05-08T11:39:52;5.03;;;2.92;;
34557;SDS011;24708;48.888;8.736;2023-05-08T11:45:07;2.88;;;2.25;;
34557;SDS011;24708;48.888;8.736;2023-05-08T11:47:40;3.03;;;2.38;;
34557;SDS011;24708;48.888;8.736;2023-05-08T11:50:12;3.85;;;2.30;;
34557;SDS011;24708;48.888;8.736;2023-05-08T11:52:44;4.20;;;2.47;;
34557;SDS011;24708;48.888;8.736;2023-05-08T11:55:12;4.63;;;2.78;;
34557;SDS011;24708;48.888;8.736;2023-05-08T11:57:46;4.47;;;3.00;;
34557;SDS011;24708;48.888;8.736;2023-05-08T12:00:14;7.65;;;3.05;;
34557;SDS011;24708;48.888;8.736;2023-05-08T12:02:42;4.32;;;2.97;;
34557;SDS011;24708;48.888;8.736;2023-05-08T12:05:13;5.25;;;2.90;;
34557;SDS011;24708;48.888;8.736;2023-05-08T12:07:43;8.38;;;2.92;;
34557;SDS011;24708;48.888;8.736;2023-05-08T12:10:13;9.10;;;3.20;;
34557;SDS011;24708;48.888;8.736;2023-05-08T12:12:44;4.95;;;3.70;;
34557;SDS011;24708;48.888;8.736;2023-05-08T12:15:13;6.53;;;3.67;;
34557;SDS011;24708;48.888;8.736;2023-05-08T12:17:42;11.23;;;4.22;;
34557;SDS011;24708;48.888;8.736;2023-05-08T12:20:10;11.75;;;4.68;;
34557;SDS011;24708;48.888;8.736;2023-05-08T12:22:51;8.70;;;4.10;;
34557;SDS011;24708;48.888;8.736;2023-05-08T12:25:22;13.25;;;4.72;;
34557;SDS011;24708;48.888;8.736;2023-05-08T12:27:53;10.18;;;4.90;;
34557;SDS011;24708;48.888;8.736;2023-05-08T12:30:24;8.73;;;4.07;;
34557;SDS011;24708;48.888;8.736;2023-05-08T12:32:58;6.97;;;4.88;;
34557;SDS011;24708;48.888;8.736;2023-05-08T12:35:28;6.85;;;4.30;;
34557;SDS011;24708;48.888;8.736;2023-05-08T12:38:01;6.07;;;4.13;;
34557;SDS011;24708;48.888;8.736;2023-05-08T12:40:30;9.57;;;4.30;;
34557;SDS011;24708;48.888;8.736;2023-05-08T12:43:00;6.80;;;4.43;;
34557;SDS011;24708;48.888;8.736;2023-05-08T12:45:29;7.03;;;4.95;;
34557;SDS011;24708;48.888;8.736;2023-05-08T12:48:05;12.63;;;5.72;;
34557;SDS011;24708;48.888;8.736;2023-05-08T12:50:34;7.50;;;4.85;;
34557;SDS011;24708;48.888;8.736;2023-05-08T12:53:04;10.40;;;5.50;;
34557;SDS011;24708;48.888;8.736;2023-05-08T12:55:36;8.73;;;5.43;;
34557;SDS011;24708;48.888;8.736;2023-05-08T12:58:05;9.80;;;6.22;;
34557;SDS011;24708;48.888;8.736;2023-05-08T13:00:41;10.43;;;5.05;;
34557;SDS011;24708;48.888;8.736;2023-05-08T13:03:11;9.40;;;6.53;;
34557;SDS011;24708;48.888;8.736;2023-05-08T13:05:41;11.48;;;6.55;;
34557;SDS011;24708;48.888;8.736;2023-05-08T13:08:09;13.00;;;6.80;;
34557;SDS011;24708;48.888;8.736;2023-05-08T13:13:16;11.93;;;7.25;;
34557;SDS011;24708;48.888;8.736;2023-05-08T13:15:48;10.13;;;6.65;;
34557;SDS011;24708;48.888;8.736;2023-05-08T13:18:17;18.20;;;8.48;;
34557;SDS011;24708;48.888;8.736;2023-05-08T13:20:45;20.40;;;11.00;;
34557;SDS011;24708;48.888;8.736;2023-05-08T13:23:13;18.02;;;10.43;;
34557;SDS011;24708;48.888;8.736;2023-05-08T13:25:40;17.35;;;10.52;;
34557;SDS011;24708;48.888;8.736;2023-05-08T13:28:08;22.08;;;12.48;;
34557;SDS011;24708;48.888;8.736;2023-05-08T13:30:39;52.60;;;13.93;;
34557;SDS011;24708;48.888;8.736;2023-05-08T13:33:06;33.28;;;16.92;;
34557;SDS011;24708;48.888;8.736;2023-05-08T13:35:35;41.08;;;20.55;;
34557;SDS011;24708;48.888;8.736;2023-05-08T13:38:03;45.33;;;18.02;;
34557;SDS011;24708;48.888;8.736;2023-05-08T13:40:31;41.38;;;18.48;;
34557;SDS011;24708;48.888;8.736;2023-05-08T13:42:59;35.58;;;17.33;;
34557;SDS011;24708;48.888;8.736;2023-05-08T13:45:28;51.90;;;22.55;;
34557;SDS011;24708;48.888;8.736;2023-05-08T13:47:57;41.03;;;20.02;;
34557;SDS011;24708;48.888;8.736;2023-05-08T13:50:28;44.33;;;18.25;;
34557;SDS011;24708;48.888;8.736;2023-05-08T13:52:56;38.88;;;18.98;;
34557;SDS011;24708;48.888;8.736;2023-05-08T13:55:25;37.63;;;18.65;;
34557;SDS011;24708;48.888;8.736;2023-05-08T13:57:59;34.70;;;19.00;;
34557;SDS011;24708;48.888;8.736;2023-05-08T14:00:27;35.13;;;18.20;;
34557;SDS011;24708;48.888;8.736;2023-05-08T14:02:57;37.85;;;16.83;;
34557;SDS011;24708;48.888;8.736;2023-05-08T14:05:24;33.92;;;17.20;;
34557;SDS011;24708;48.888;8.736;2023-05-08T14:07:52;35.30;;;17.73;;
34557;SDS011;24708;48.888;8.736;2023-05-08T14:10:19;33.08;;;16.55;;
34557;SDS011;24708;48.888;8.736;2023-05-08T14:12:47;30.60;;;15.73;;
34557;SDS011;24708;48.888;8.736;2023-05-08T14:15:14;31.48;;;17.10;;
34557;SDS011;24708;48.888;8.736;2023-05-08T14:17:42;37.40;;;18.20;;
34557;SDS011;24708;48.888;8.736;2023-05-08T14:20:10;31.00;;;16.77;;
34557;SDS011;24708;48.888;8.736;2023-05-08T14:22:38;29.77;;;17.77;;
34557;SDS011;24708;48.888;8.736;2023-05-08T14:25:05;32.10;;;17.10;;
34557;SDS011;24708;48.888;8.736;2023-05-08T14:27:33;27.17;;;15.48;;
34557;SDS011;24708;48.888;8.736;2023-05-08T14:30:00;30.23;;;16.70;;
34557;SDS011;24708;48.888;8.736;2023-05-08T14:32:28;36.28;;;18.65;;
34557;SDS011;24708;48.888;8.736;2023-05-08T14:34:56;31.35;;;17.70;;
34557;SDS011;24708;48.888;8.736;2023-05-08T14:37:23;28.77;;;15.80;;
34557;SDS011;24708;48.888;8.736;2023-05-08T14:39:51;30.20;;;17.20;;
34557;SDS011;24708;48.888;8.736;2023-05-08T14:42:19;27.35;;;15.23;;
34557;SDS011;24708;48.888;8.736;2023-05-08T14:44:49;34.58;;;16.23;;
34557;SDS011;24708;48.888;8.736;2023-05-08T14:47:17;25.13;;;16.10;;
34557;SDS011;24708;48.888;8.736;2023-05-08T14:49:44;28.05;;;15.63;;
34557;SDS011;24708;48.888;8.736;2023-05-08T14:52:12;32.20;;;17.17;;
34557;SDS011;24708;48.888;8.736;2023-05-08T14:54:39;31.95;;;16.30;;
34557;SDS011;24708;48.888;8.736;2023-05-08T14:57:06;31.63;;;17.50;;
34557;SDS011;24708;48.888;8.736;2023-05-08T14:59:34;26.92;;;16.10;;
34557;SDS011;24708;48.888;8.736;2023-05-08T15:02:02;28.52;;;16.58;;
34557;SDS011;24708;48.888;8.736;2023-05-08T15:04:29;31.27;;;16.52;;
34557;SDS011;24708;48.888;8.736;2023-05-08T15:06:56;25.92;;;17.25;;
34557;SDS011;24708;48.888;8.736;2023-05-08T15:09:23;31.05;;;15.77;;
34557;SDS011;24708;48.888;8.736;2023-05-08T15:11:51;30.08;;;16.80;;
34557;SDS011;24708;48.888;8.736;2023-05-08T15:14:18;30.23;;;17.02;;
34557;SDS011;24708;48.888;8.736;2023-05-08T15:16:46;31.52;;;17.63;;
34557;SDS011;24708;48.888;8.736;2023-05-08T15:19:13;33.50;;;17.10;;
34557;SDS011;24708;48.888;8.736;2023-05-08T15:21:41;31.63;;;17.42;;
34557;SDS011;24708;48.888;8.736;2023-05-08T15:24:08;34.92;;;17.52;;
34557;SDS011;24708;48.888;8.736;2023-05-08T15:26:37;29.85;;;16.30;;
34557;SDS011;24708;48.888;8.736;2023-05-08T15:29:04;29.90;;;17.02;;
34557;SDS011;24708;48.888;8.736;2023-05-08T15:31:31;37.13;;;16.75;;
34557;SDS011;24708;48.888;8.736;2023-05-08T15:33:58;30.83;;;16.80;;
34557;SDS011;24708;48.888;8.736;2023-05-08T15:36:26;30.73;;;16.13;;
34557;SDS011;24708;48.888;8.736;2023-05-08T15:38:55;31.08;;;17.35;;
34557;SDS011;24708;48.888;8.736;2023-05-08T15:41:22;32.83;;;18.00;;
34557;SDS011;24708;48.888;8.736;2023-05-08T15:43:49;36.08;;;17.85;;
34557;SDS011;24708;48.888;8.736;2023-05-08T15:46:17;29.77;;;17.65;;
34557;SDS011;24708;48.888;8.736;2023-05-08T15:48:44;40.20;;;20.48;;
34557;SDS011;24708;48.888;8.736;2023-05-08T15:51:12;36.67;;;19.48;;
34557;SDS011;24708;48.888;8.736;2023-05-08T15:53:39;40.97;;;19.08;;
34557;SDS011;24708;48.888;8.736;2023-05-08T15:56:07;36.50;;;18.70;;
34557;SDS011;24708;48.888;8.736;2023-05-08T15:58:34;37.80;;;17.63;;
